Aérodrome :
LOGIN :

S'inscrire | Disclaimer

   EN    FR    IT 

 










Légende :    VFR   VFR Marginal   IFR   IFR Intensif   IFR Très Intensif
Visi : 
Plafond : 
>= 8 km
>= 3000ft
5 à 8 km
1000 à 3000 ft
1500m à 5 km
500 à 1000 ft
800 à 1500m
200 à 500 ft
< 800m
< 200 ft
Symboles :   Orages  Brouillard  Fortes neiges  Fortes précipitations  Vent > 20 kt
SIGMETs :   Divers  Orages  Givrage  Turbulence  Onde Orograph.  Cendres Volcan.






- Altitude de l'aérodrome : 1234 ft
- Code IATA : LUX


ELLX - Luxembourg Findel

DERNIER METAR :
  • 142020Z VRB02KT 9999 BKN048 15/13 Q1015 NOSIG

METARs EXPIRÉS :
  • 141950Z VRB01KT 9999 FEW040 BKN070 15/13 Q1015 NOSIG
  • 141920Z 24003KT 180V290 9999 FEW031 BKN049 15/12 Q1014 NOSIG
  • 141850Z 28007KT 9999 -RA FEW028 BKN045 15/12 Q1015 NOSIG
  • 141820Z 29008KT 9999 -RA FEW025 BKN049 16/11 Q1015 NOSIG
  • 141750Z 27008KT 9999 -RA FEW022 SCT040 16/11 Q1015 NOSIG
  • 141720Z 27009KT 9999 -RA FEW030 SCT048 16/10 Q1015 NOSIG

TAF TAF ELLX
Valide du 14 à 18h jusqu'au 16 à 00h UTC


141700Z 1418/1524 28012KT 9999 SCT045
TEMPO 1418/1512 25007KT 5000 -RA BKN012
ATIS : +352 4798 27300
Météo : +352 4798 27010 / 27050



MET'MAP, la Météo Aéronautique d'un coup d'oeil ! - Copyright ORBIFLY Décembre 2007 - Disclaimer

ORBIFLY MET'MAP TEAM :

Programmation & Développement : Alexandra Zaïnal
Sur une idée originale de : Baudouin d'Aumeries
Assistance à la programmation : Marc-Olivier Méhu
Soutien technique & logistique : Manuel Goepfert

Contact : metmap@orbifly.com




SOURCES & CREDITS :

   NOAA